sensor_id;sensor_type;location;lat;lon;timestamp;pressure;altitude;pressure_sealevel;temperature;humidity
44839;BME280;30576;42.098;24.876;2022-11-15T00:01:47;100520.13;;;8.99;81.00
44839;BME280;30576;42.098;24.876;2022-11-15T00:04:13;100519.22;;;9.00;81.26
44839;BME280;30576;42.098;24.876;2022-11-15T00:06:38;100519.25;;;9.05;80.66
44839;BME280;30576;42.098;24.876;2022-11-15T00:09:03;100518.41;;;9.13;80.64
44839;BME280;30576;42.098;24.876;2022-11-15T00:11:28;100515.75;;;9.09;80.08
44839;BME280;30576;42.098;24.876;2022-11-15T00:13:55;100519.28;;;9.19;79.93
44839;BME280;30576;42.098;24.876;2022-11-15T00:16:20;100519.28;;;9.14;79.48
44839;BME280;30576;42.098;24.876;2022-11-15T00:18:46;100521.84;;;9.02;80.22
44839;BME280;30576;42.098;24.876;2022-11-15T00:21:12;100508.75;;;9.14;79.81
44839;BME280;30576;42.098;24.876;2022-11-15T00:23:37;100521.06;;;9.21;79.50
44839;BME280;30576;42.098;24.876;2022-11-15T00:26:03;100514.03;;;9.20;78.91
44839;BME280;30576;42.098;24.876;2022-11-15T00:28:28;100514.97;;;9.31;79.15
44839;BME280;30576;42.098;24.876;2022-11-15T00:33:57;100504.44;;;9.28;78.93
44839;BME280;30576;42.098;24.876;2022-11-15T00:36:22;100498.28;;;9.29;78.57
44839;BME280;30576;42.098;24.876;2022-11-15T00:38:47;100494.75;;;9.23;78.31
44839;BME280;30576;42.098;24.876;2022-11-15T00:41:13;100499.13;;;9.11;79.09
44839;BME280;30576;42.098;24.876;2022-11-15T00:46:40;100495.53;;;8.99;79.53
44839;BME280;30576;42.098;24.876;2022-11-15T00:49:06;100492.84;;;8.89;79.80
44839;BME280;30576;42.098;24.876;2022-11-15T00:51:31;100491.09;;;8.84;80.05
44839;BME280;30576;42.098;24.876;2022-11-15T00:53:56;100483.22;;;8.90;79.95
44839;BME280;30576;42.098;24.876;2022-11-15T00:56:22;100483.25;;;8.93;79.20
44839;BME280;30576;42.098;24.876;2022-11-15T00:58:47;100488.50;;;8.93;79.40
44839;BME280;30576;42.098;24.876;2022-11-15T01:01:13;100488.53;;;9.01;79.06
44839;BME280;30576;42.098;24.876;2022-11-15T01:06:41;100481.31;;;8.59;80.03
44839;BME280;30576;42.098;24.876;2022-11-15T01:09:07;100484.91;;;8.77;80.15
44839;BME280;30576;42.098;24.876;2022-11-15T01:11:33;100484.94;;;8.83;79.88
44839;BME280;30576;42.098;24.876;2022-11-15T01:13:58;100482.25;;;8.74;80.31
44839;BME280;30576;42.098;24.876;2022-11-15T01:16:23;100483.97;;;8.66;80.55
44839;BME280;30576;42.098;24.876;2022-11-15T01:18:50;100476.13;;;8.75;79.93
44839;BME280;30576;42.098;24.876;2022-11-15T01:21:17;100477.00;;;8.77;79.86
44839;BME280;30576;42.098;24.876;2022-11-15T01:23:43;100469.19;;;8.89;79.80
44839;BME280;30576;42.098;24.876;2022-11-15T01:26:10;100472.72;;;8.96;78.92
44839;BME280;30576;42.098;24.876;2022-11-15T01:28:37;100476.22;;;8.90;79.54
44839;BME280;30576;42.098;24.876;2022-11-15T01:31:03;100469.16;;;8.88;79.88
44839;BME280;30576;42.098;24.876;2022-11-15T01:33:29;100469.25;;;9.08;79.30
44839;BME280;30576;42.098;24.876;2022-11-15T01:35:54;100475.44;;;9.13;78.83
44839;BME280;30576;42.098;24.876;2022-11-15T01:38:20;100477.16;;;9.12;78.72
44839;BME280;30576;42.098;24.876;2022-11-15T01:40:45;100471.06;;;9.23;78.07
44839;BME280;30576;42.098;24.876;2022-11-15T01:43:24;100470.22;;;9.28;78.03
44839;BME280;30576;42.098;24.876;2022-11-15T01:46:25;100464.03;;;9.22;78.15
44839;BME280;30576;42.098;24.876;2022-11-15T01:48:42;100456.94;;;8.94;79.51
44839;BME280;30576;42.098;24.876;2022-11-15T01:51:08;100461.34;;;9.08;78.94
44839;BME280;30576;42.098;24.876;2022-11-15T01:53:35;100457.03;;;9.22;78.19
44839;BME280;30576;42.098;24.876;2022-11-15T01:56:02;100465.78;;;9.23;78.14
44839;BME280;30576;42.098;24.876;2022-11-15T01:58:29;100460.56;;;9.32;77.98
44839;BME280;30576;42.098;24.876;2022-11-15T02:00:54;100465.81;;;9.32;78.02
44839;BME280;30576;42.098;24.876;2022-11-15T02:03:20;100451.78;;;9.27;77.73
44839;BME280;30576;42.098;24.876;2022-11-15T02:05:48;100453.50;;;9.26;77.41
44839;BME280;30576;42.098;24.876;2022-11-15T02:08:14;100469.28;;;9.23;78.19
44839;BME280;30576;42.098;24.876;2022-11-15T02:10:45;100459.66;;;9.21;78.20
44839;BME280;30576;42.098;24.876;2022-11-15T02:13:10;100466.63;;;9.14;79.45
44839;BME280;30576;42.098;24.876;2022-11-15T02:15:37;100457.91;;;9.27;79.19
44839;BME280;30576;42.098;24.876;2022-11-15T02:28:55;100452.66;;;9.32;79.43
44839;BME280;30576;42.098;24.876;2022-11-15T02:34:19;100450.88;;;9.31;78.73
44839;BME280;30576;42.098;24.876;2022-11-15T02:36:59;100457.94;;;9.47;78.59
44839;BME280;30576;42.098;24.876;2022-11-15T02:39:31;100449.13;;;9.25;78.22
44839;BME280;30576;42.098;24.876;2022-11-15T02:44:26;100447.38;;;9.21;78.59
44839;BME280;30576;42.098;24.876;2022-11-15T02:47:00;100446.50;;;9.25;78.12
44839;BME280;30576;42.098;24.876;2022-11-15T02:49:40;100441.22;;;9.24;77.82
44839;BME280;30576;42.098;24.876;2022-11-15T02:52:06;100446.41;;;8.90;78.84
44839;BME280;30576;42.098;24.876;2022-11-15T02:54:32;100450.81;;;9.05;79.16
44839;BME280;30576;42.098;24.876;2022-11-15T02:57:01;100449.91;;;8.90;79.71
44839;BME280;30576;42.098;24.876;2022-11-15T03:10:09;100431.53;;;9.06;78.80
44839;BME280;30576;42.098;24.876;2022-11-15T03:12:48;100432.41;;;9.12;77.80
44839;BME280;30576;42.098;24.876;2022-11-15T03:17:49;100429.81;;;9.28;77.92
44839;BME280;30576;42.098;24.876;2022-11-15T03:20:17;100431.56;;;9.23;78.00
44839;BME280;30576;42.098;24.876;2022-11-15T03:22:44;100420.19;;;9.30;78.15
44839;BME280;30576;42.098;24.876;2022-11-15T03:25:11;100429.81;;;9.34;77.73
44839;BME280;30576;42.098;24.876;2022-11-15T03:27:39;100439.50;;;9.37;77.15
44839;BME280;30576;42.098;24.876;2022-11-15T03:30:07;100430.75;;;9.41;77.69
44839;BME280;30576;42.098;24.876;2022-11-15T03:35:29;100427.19;;;9.36;77.21
44839;BME280;30576;42.098;24.876;2022-11-15T03:40:24;100428.09;;;9.30;77.73
44839;BME280;30576;42.098;24.876;2022-11-15T03:43:36;100434.13;;;9.00;77.77
44839;BME280;30576;42.098;24.876;2022-11-15T03:45:39;100428.88;;;9.01;77.54
44839;BME280;30576;42.098;24.876;2022-11-15T03:48:12;100416.56;;;8.94;77.50
44839;BME280;30576;42.098;24.876;2022-11-15T03:50:38;100415.63;;;8.76;77.98
44839;BME280;30576;42.098;24.876;2022-11-15T03:53:04;100412.19;;;8.88;77.57
44839;BME280;30576;42.098;24.876;2022-11-15T03:55:31;100413.00;;;8.76;77.75
44839;BME280;30576;42.098;24.876;2022-11-15T03:57:57;100398.16;;;9.00;77.17
44839;BME280;30576;42.098;24.876;2022-11-15T04:00:23;100403.41;;;8.94;77.26
44839;BME280;30576;42.098;24.876;2022-11-15T04:02:49;100399.06;;;8.99;77.60
44839;BME280;30576;42.098;24.876;2022-11-15T04:05:14;100396.44;;;8.99;76.79
44839;BME280;30576;42.098;24.876;2022-11-15T04:07:39;100399.94;;;8.98;76.99
44839;BME280;30576;42.098;24.876;2022-11-15T04:10:05;100401.66;;;8.91;76.94
44839;BME280;30576;42.098;24.876;2022-11-15T04:12:36;100393.78;;;8.93;77.68
44839;BME280;30576;42.098;24.876;2022-11-15T04:15:04;100389.41;;;9.03;76.79
44839;BME280;30576;42.098;24.876;2022-11-15T04:17:35;100395.56;;;9.08;76.94
44839;BME280;30576;42.098;24.876;2022-11-15T04:20:01;100393.75;;;8.79;77.14
44839;BME280;30576;42.098;24.876;2022-11-15T04:22:45;100390.25;;;8.91;76.69
44839;BME280;30576;42.098;24.876;2022-11-15T04:25:29;100388.50;;;8.90;77.30
44839;BME280;30576;42.098;24.876;2022-11-15T04:27:54;100384.09;;;8.87;77.33
44839;BME280;30576;42.098;24.876;2022-11-15T04:30:20;100385.00;;;8.97;77.09
44839;BME280;30576;42.098;24.876;2022-11-15T04:35:48;100389.44;;;9.10;76.63
44839;BME280;30576;42.098;24.876;2022-11-15T04:38:33;100389.44;;;9.15;76.88
44839;BME280;30576;42.098;24.876;2022-11-15T04:40:59;100385.91;;;9.07;76.69
44839;BME280;30576;42.098;24.876;2022-11-15T04:46:27;100388.53;;;9.04;76.80
44839;BME280;30576;42.098;24.876;2022-11-15T04:51:55;100383.28;;;9.05;76.61
44839;BME280;30576;42.098;24.876;2022-11-15T04:54:20;100388.56;;;9.05;76.02
44839;BME280;30576;42.098;24.876;2022-11-15T04:56:46;100386.75;;;8.89;76.17
44839;BME280;30576;42.098;24.876;2022-11-15T04:59:11;100384.97;;;8.86;76.54
44839;BME280;30576;42.098;24.876;2022-11-15T05:01:36;100384.94;;;8.74;77.23
44839;BME280;30576;42.098;24.876;2022-11-15T05:04:02;100384.06;;;8.76;76.62
44839;BME280;30576;42.098;24.876;2022-11-15T05:06:49;100381.47;;;8.83;76.47
44839;BME280;30576;42.098;24.876;2022-11-15T05:09:15;100376.19;;;8.83;76.57
44839;BME280;30576;42.098;24.876;2022-11-15T05:14:43;100387.63;;;8.92;76.34
44839;BME280;30576;42.098;24.876;2022-11-15T05:17:08;100386.78;;;9.00;76.61
44839;BME280;30576;42.098;24.876;2022-11-15T05:19:33;100386.78;;;9.01;76.65
44839;BME280;30576;42.098;24.876;2022-11-15T05:21:59;100387.63;;;8.95;76.80
44839;BME280;30576;42.098;24.876;2022-11-15T05:24:24;100391.19;;;9.02;76.72
44839;BME280;30576;42.098;24.876;2022-11-15T05:26:49;100393.78;;;8.99;76.81
44839;BME280;30576;42.098;24.876;2022-11-15T05:29:14;100389.44;;;9.10;76.49
44839;BME280;30576;42.098;24.876;2022-11-15T05:31:40;100384.16;;;9.10;76.36
44839;BME280;30576;42.098;24.876;2022-11-15T05:34:06;100387.69;;;9.19;76.29
44839;BME280;30576;42.098;24.876;2022-11-15T05:38:57;100380.69;;;9.19;76.37
44839;BME280;30576;42.098;24.876;2022-11-15T05:44:07;100382.41;;;9.11;75.94
44839;BME280;30576;42.098;24.876;2022-11-15T05:46:34;100385.03;;;9.17;76.84
44839;BME280;30576;42.098;24.876;2022-11-15T05:49:00;100392.97;;;9.28;75.87
44839;BME280;30576;42.098;24.876;2022-11-15T05:51:26;100393.88;;;9.42;75.87
44839;BME280;30576;42.098;24.876;2022-11-15T05:53:53;100394.75;;;9.41;75.73
44839;BME280;30576;42.098;24.876;2022-11-15T05:56:20;100391.25;;;9.45;75.45
44839;BME280;30576;42.098;24.876;2022-11-15T05:58:45;100403.50;;;9.46;75.54
44839;BME280;30576;42.098;24.876;2022-11-15T06:01:11;100398.25;;;9.49;75.91
44839;BME280;30576;42.098;24.876;2022-11-15T06:03:36;100417.56;;;9.39;76.07
44839;BME280;30576;42.098;24.876;2022-11-15T06:06:01;100413.19;;;9.49;75.36
44839;BME280;30576;42.098;24.876;2022-11-15T06:08:27;100414.94;;;9.47;75.94
44839;BME280;30576;42.098;24.876;2022-11-15T06:10:52;100408.78;;;9.56;75.73
44839;BME280;30576;42.098;24.876;2022-11-15T06:13:17;100415.81;;;9.66;75.83
44839;BME280;30576;42.098;24.876;2022-11-15T06:15:43;100418.47;;;9.71;75.57
44839;BME280;30576;42.098;24.876;2022-11-15T06:18:08;100412.31;;;9.61;75.88
44839;BME280;30576;42.098;24.876;2022-11-15T06:23:36;100410.53;;;9.94;74.69
44839;BME280;30576;42.098;24.876;2022-11-15T06:26:02;100418.44;;;9.94;74.98
44839;BME280;30576;42.098;24.876;2022-11-15T06:28:28;100419.31;;;10.03;74.72
44839;BME280;30576;42.098;24.876;2022-11-15T06:30:53;100414.03;;;10.03;74.33
44839;BME280;30576;42.098;24.876;2022-11-15T06:33:18;100419.28;;;10.27;74.04
44839;BME280;30576;42.098;24.876;2022-11-15T06:35:44;100417.53;;;10.29;73.75
44839;BME280;30576;42.098;24.876;2022-11-15T06:38:09;100405.19;;;10.46;71.84
44839;BME280;30576;42.098;24.876;2022-11-15T06:40:36;100409.66;;;10.15;71.55
44839;BME280;30576;42.098;24.876;2022-11-15T06:43:02;100413.13;;;10.28;70.67
44839;BME280;30576;42.098;24.876;2022-11-15T06:45:28;100415.78;;;10.37;68.92
44839;BME280;30576;42.098;24.876;2022-11-15T06:47:53;100413.13;;;10.38;69.52
44839;BME280;30576;42.098;24.876;2022-11-15T06:50:18;100415.78;;;10.14;67.70
44839;BME280;30576;42.098;24.876;2022-11-15T06:52:44;100412.19;;;10.55;65.13
44839;BME280;30576;42.098;24.876;2022-11-15T06:55:09;100405.19;;;10.45;65.19
44839;BME280;30576;42.098;24.876;2022-11-15T06:57:35;100412.09;;;10.77;62.79
44839;BME280;30576;42.098;24.876;2022-11-15T07:00:00;100415.66;;;10.71;64.13
44839;BME280;30576;42.098;24.876;2022-11-15T07:02:26;100408.63;;;10.67;66.13
44839;BME280;30576;42.098;24.876;2022-11-15T07:04:51;100406.78;;;10.81;64.33
44839;BME280;30576;42.098;24.876;2022-11-15T07:07:16;100403.16;;;11.05;63.99
44839;BME280;30576;42.098;24.876;2022-11-15T07:09:41;100401.41;;;11.04;64.90
44839;BME280;30576;42.098;24.876;2022-11-15T07:12:07;100405.88;;;10.93;63.98
44839;BME280;30576;42.098;24.876;2022-11-15T07:14:32;100398.66;;;11.21;63.13
44839;BME280;30576;42.098;24.876;2022-11-15T07:16:57;100405.03;;;10.89;63.89
44839;BME280;30576;42.098;24.876;2022-11-15T07:19:23;100397.69;;;11.35;62.98
44839;BME280;30576;42.098;24.876;2022-11-15T07:21:48;100398.72;;;11.12;65.81
44839;BME280;30576;42.098;24.876;2022-11-15T07:24:13;100394.16;;;11.40;64.89
44839;BME280;30576;42.098;24.876;2022-11-15T07:26:39;100399.25;;;11.65;63.92
44839;BME280;30576;42.098;24.876;2022-11-15T07:29:04;100393.66;;;12.02;62.56
44839;BME280;30576;42.098;24.876;2022-11-15T07:31:29;100390.16;;;11.98;63.60
44839;BME280;30576;42.098;24.876;2022-11-15T07:33:55;100388.28;;;12.10;63.73
44839;BME280;30576;42.098;24.876;2022-11-15T07:36:20;100388.34;;;12.05;60.68
44839;BME280;30576;42.098;24.876;2022-11-15T07:38:45;100383.22;;;11.85;61.87
44839;BME280;30576;42.098;24.876;2022-11-15T07:41:11;100376.63;;;12.28;58.43
44839;BME280;30576;42.098;24.876;2022-11-15T07:43:36;100378.13;;;12.52;57.79
44839;BME280;30576;42.098;24.876;2022-11-15T07:46:05;100381.06;;;12.27;58.35
44839;BME280;30576;42.098;24.876;2022-11-15T07:48:30;100372.94;;;12.43;58.03
44839;BME280;30576;42.098;24.876;2022-11-15T07:50:56;100377.03;;;12.70;57.81
44839;BME280;30576;42.098;24.876;2022-11-15T07:53:21;100374.25;;;12.81;56.64
44839;BME280;30576;42.098;24.876;2022-11-15T07:55:46;100378.41;;;12.97;55.35
44839;BME280;30576;42.098;24.876;2022-11-15T07:58:12;100376.59;;;13.02;54.01
44839;BME280;30576;42.098;24.876;2022-11-15T08:00:37;100376.31;;;13.21;53.38
44839;BME280;30576;42.098;24.876;2022-11-15T08:03:07;100379.19;;;13.05;55.39
44839;BME280;30576;42.098;24.876;2022-11-15T08:05:33;100372.78;;;13.20;56.10
44839;BME280;30576;42.098;24.876;2022-11-15T08:07:58;100374.63;;;13.15;55.47
44839;BME280;30576;42.098;24.876;2022-11-15T08:10:24;100372.19;;;13.60;52.79
44839;BME280;30576;42.098;24.876;2022-11-15T08:12:59;100376.19;;;13.85;52.58
44839;BME280;30576;42.098;24.876;2022-11-15T08:15:24;100368.66;;;13.01;55.42
44839;BME280;30576;42.098;24.876;2022-11-15T08:17:56;100370.31;;;13.08;55.06
44839;BME280;30576;42.098;24.876;2022-11-15T08:20:22;100360.78;;;13.55;55.99
44839;BME280;30576;42.098;24.876;2022-11-15T08:22:47;100363.31;;;13.63;55.35
44839;BME280;30576;42.098;24.876;2022-11-15T08:25:13;100355.34;;;13.65;54.51
44839;BME280;30576;42.098;24.876;2022-11-15T08:27:38;100362.66;;;14.00;53.18
44839;BME280;30576;42.098;24.876;2022-11-15T08:30:03;100354.72;;;14.00;52.88
44839;BME280;30576;42.098;24.876;2022-11-15T08:32:30;100349.72;;;13.83;53.21
44839;BME280;30576;42.098;24.876;2022-11-15T08:34:55;100347.28;;;14.18;52.43
44839;BME280;30576;42.098;24.876;2022-11-15T08:37:20;100345.84;;;14.01;53.68
44839;BME280;30576;42.098;24.876;2022-11-15T08:39:46;100348.44;;;14.04;53.39
44839;BME280;30576;42.098;24.876;2022-11-15T08:42:11;100349.13;;;14.15;53.25
44839;BME280;30576;42.098;24.876;2022-11-15T08:44:36;100349.34;;;14.03;54.46
44839;BME280;30576;42.098;24.876;2022-11-15T08:47:02;100342.31;;;14.01;54.16
44839;BME280;30576;42.098;24.876;2022-11-15T08:49:27;100343.84;;;14.14;54.07
44839;BME280;30576;42.098;24.876;2022-11-15T08:51:52;100339.72;;;13.97;54.66
44839;BME280;30576;42.098;24.876;2022-11-15T08:54:18;100342.31;;;14.01;54.99
44839;BME280;30576;42.098;24.876;2022-11-15T08:56:43;100339.88;;;13.88;56.69
44839;BME280;30576;42.098;24.876;2022-11-15T08:59:08;100334.66;;;13.84;56.72
44839;BME280;30576;42.098;24.876;2022-11-15T09:01:34;100325.41;;;14.06;55.53
44839;BME280;30576;42.098;24.876;2022-11-15T09:03:59;100323.06;;;13.91;55.61
44839;BME280;30576;42.098;24.876;2022-11-15T09:06:24;100318.88;;;14.24;55.39
44839;BME280;30576;42.098;24.876;2022-11-15T09:08:50;100318.13;;;14.16;54.81
44839;BME280;30576;42.098;24.876;2022-11-15T09:11:15;100309.63;;;13.52;56.55
44839;BME280;30576;42.098;24.876;2022-11-15T09:13:43;100305.38;;;13.41;56.60
44839;BME280;30576;42.098;24.876;2022-11-15T09:16:08;100299.13;;;13.46;56.37
44839;BME280;30576;42.098;24.876;2022-11-15T09:18:33;100297.59;;;13.29;57.13
44839;BME280;30576;42.098;24.876;2022-11-15T09:20:59;100288.56;;;13.42;57.46
44839;BME280;30576;42.098;24.876;2022-11-15T09:23:25;100278.25;;;13.75;55.35
44839;BME280;30576;42.098;24.876;2022-11-15T09:25:50;100277.22;;;13.84;55.79
44839;BME280;30576;42.098;24.876;2022-11-15T09:28:16;100274.97;;;14.08;55.96
44839;BME280;30576;42.098;24.876;2022-11-15T09:30:41;100274.59;;;13.83;56.67
44839;BME280;30576;42.098;24.876;2022-11-15T09:33:10;100263.25;;;13.74;57.80
44839;BME280;30576;42.098;24.876;2022-11-15T09:35:36;100269.06;;;13.95;56.64
44839;BME280;30576;42.098;24.876;2022-11-15T09:38:02;100259.94;;;13.63;56.71
44839;BME280;30576;42.098;24.876;2022-11-15T09:40:27;100260.97;;;13.54;57.67
44839;BME280;30576;42.098;24.876;2022-11-15T09:50:28;100254.47;;;13.71;55.59
44839;BME280;30576;42.098;24.876;2022-11-15T09:52:56;100239.84;;;13.96;55.99
44839;BME280;30576;42.098;24.876;2022-11-15T09:55:21;100236.81;;;14.15;56.00
44839;BME280;30576;42.098;24.876;2022-11-15T09:57:55;100229.75;;;14.14;57.20
44839;BME280;30576;42.098;24.876;2022-11-15T10:00:31;100226.94;;;14.22;54.39
44839;BME280;30576;42.098;24.876;2022-11-15T10:03:33;100229.03;;;14.48;53.49
44839;BME280;30576;42.098;24.876;2022-11-15T10:15:01;100216.66;;;14.47;53.48
44839;BME280;30576;42.098;24.876;2022-11-15T10:20:28;100202.84;;;14.31;54.76
44839;BME280;30576;42.098;24.876;2022-11-15T10:23:00;100196.00;;;14.21;55.67
44839;BME280;30576;42.098;24.876;2022-11-15T10:25:27;100196.72;;;14.29;54.37
44839;BME280;30576;42.098;24.876;2022-11-15T10:30:38;100187.63;;;14.39;55.71
44839;BME280;30576;42.098;24.876;2022-11-15T10:43:44;100174.25;;;14.44;53.35
44839;BME280;30576;42.098;24.876;2022-11-15T10:46:19;100177.28;;;14.67;53.60
44839;BME280;30576;42.098;24.876;2022-11-15T10:48:44;100170.38;;;14.60;53.02
44839;BME280;30576;42.098;24.876;2022-11-15T10:51:19;100168.03;;;14.45;53.94
44839;BME280;30576;42.098;24.876;2022-11-15T10:53:45;100163.84;;;14.74;53.00
44839;BME280;30576;42.098;24.876;2022-11-15T10:56:12;100156.09;;;14.66;52.94
44839;BME280;30576;42.098;24.876;2022-11-15T10:58:41;100154.19;;;14.32;53.34
44839;BME280;30576;42.098;24.876;2022-11-15T11:03:36;100156.59;;;14.43;54.59
44839;BME280;30576;42.098;24.876;2022-11-15T11:08:30;100143.38;;;14.79;52.77
44839;BME280;30576;42.098;24.876;2022-11-15T11:14:11;100131.09;;;14.36;54.80
44839;BME280;30576;42.098;24.876;2022-11-15T11:22:30;100120.81;;;14.95;53.06
44839;BME280;30576;42.098;24.876;2022-11-15T11:27:41;100112.84;;;14.95;52.86
44839;BME280;30576;42.098;24.876;2022-11-15T11:35:13;100092.75;;;14.85;53.93
44839;BME280;30576;42.098;24.876;2022-11-15T11:37:57;100088.53;;;15.11;53.72
44839;BME280;30576;42.098;24.876;2022-11-15T11:45:44;100086.09;;;14.31;55.42
44839;BME280;30576;42.098;24.876;2022-11-15T11:50:52;100073.94;;;14.93;54.46
44839;BME280;30576;42.098;24.876;2022-11-15T11:55:45;100070.78;;;14.78;53.62
44839;BME280;30576;42.098;24.876;2022-11-15T11:58:19;100071.78;;;14.74;53.67
44839;BME280;30576;42.098;24.876;2022-11-15T12:00:49;100065.66;;;14.72;54.18
44839;BME280;30576;42.098;24.876;2022-11-15T12:05:46;100057.53;;;14.78;53.39
44839;BME280;30576;42.098;24.876;2022-11-15T12:08:20;100056.63;;;14.78;53.92
44839;BME280;30576;42.098;24.876;2022-11-15T12:10:48;100048.13;;;14.98;54.02
44839;BME280;30576;42.098;24.876;2022-11-15T12:13:18;100046.06;;;15.09;53.59
44839;BME280;30576;42.098;24.876;2022-11-15T12:18:16;100045.63;;;14.92;54.24
44839;BME280;30576;42.098;24.876;2022-11-15T12:20:51;100032.78;;;14.76;54.55
44839;BME280;30576;42.098;24.876;2022-11-15T12:24:00;100033.03;;;15.00;54.63
44839;BME280;30576;42.098;24.876;2022-11-15T12:26:10;100037.78;;;14.53;55.99
44839;BME280;30576;42.098;24.876;2022-11-15T12:28:45;100028.22;;;14.81;55.72
44839;BME280;30576;42.098;24.876;2022-11-15T12:31:23;100030.38;;;15.00;54.63
44839;BME280;30576;42.098;24.876;2022-11-15T12:33:49;100021.03;;;14.85;55.83
44839;BME280;30576;42.098;24.876;2022-11-15T12:41:19;100021.00;;;14.86;55.79
44839;BME280;30576;42.098;24.876;2022-11-15T12:43:46;100019.63;;;15.04;55.60
44839;BME280;30576;42.098;24.876;2022-11-15T12:59:51;99990.81;;;14.55;57.42
44839;BME280;30576;42.098;24.876;2022-11-15T13:02:39;99991.53;;;14.27;58.45
44839;BME280;30576;42.098;24.876;2022-11-15T13:17:54;99977.34;;;14.29;59.38
44839;BME280;30576;42.098;24.876;2022-11-15T13:20:21;99974.81;;;14.25;59.38
44839;BME280;30576;42.098;24.876;2022-11-15T13:31:26;99964.69;;;13.69;59.62
44839;BME280;30576;42.098;24.876;2022-11-15T13:36:55;99961.84;;;13.76;60.61
44839;BME280;30576;42.098;24.876;2022-11-15T13:41:52;99959.06;;;13.83;61.12
44839;BME280;30576;42.098;24.876;2022-11-15T13:44:23;99954.25;;;13.61;60.79
44839;BME280;30576;42.098;24.876;2022-11-15T13:46:48;99955.22;;;13.57;60.84
44839;BME280;30576;42.098;24.876;2022-11-15T13:49:13;99955.06;;;13.65;60.88
44839;BME280;30576;42.098;24.876;2022-11-15T13:51:43;99958.13;;;13.46;60.85
44839;BME280;30576;42.098;24.876;2022-11-15T13:59:52;99947.44;;;13.51;60.93
44839;BME280;30576;42.098;24.876;2022-11-15T14:02:40;99946.69;;;13.44;61.13
44839;BME280;30576;42.098;24.876;2022-11-15T14:05:14;99943.16;;;13.43;60.69
44839;BME280;30576;42.098;24.876;2022-11-15T14:07:41;99946.06;;;13.31;61.26
44839;BME280;30576;42.098;24.876;2022-11-15T14:10:24;99948.66;;;13.34;60.42
44839;BME280;30576;42.098;24.876;2022-11-15T14:12:50;99945.78;;;13.45;59.78
44839;BME280;30576;42.098;24.876;2022-11-15T14:21:06;99938.41;;;13.17;61.48
44839;BME280;30576;42.098;24.876;2022-11-15T14:23:32;99940.19;;;13.17;61.21
44839;BME280;30576;42.098;24.876;2022-11-15T14:25:58;99935.13;;;13.06;61.65
44839;BME280;30576;42.098;24.876;2022-11-15T14:30:50;99940.16;;;13.18;61.22
44839;BME280;30576;42.098;24.876;2022-11-15T14:33:21;99939.16;;;13.24;61.66
44839;BME280;30576;42.098;24.876;2022-11-15T14:35:47;99937.63;;;13.14;61.02
44839;BME280;30576;42.098;24.876;2022-11-15T14:38:12;99935.00;;;13.12;61.62
44839;BME280;30576;42.098;24.876;2022-11-15T14:40:38;99936.84;;;13.08;61.37
44839;BME280;30576;42.098;24.876;2022-11-15T14:43:03;99928.25;;;12.97;61.49
44839;BME280;30576;42.098;24.876;2022-11-15T14:45:28;99930.91;;;12.96;61.60
44839;BME280;30576;42.098;24.876;2022-11-15T14:47:54;99932.91;;;12.86;62.49
44839;BME280;30576;42.098;24.876;2022-11-15T14:50:20;99936.31;;;12.91;62.42
44839;BME280;30576;42.098;24.876;2022-11-15T14:52:46;99930.00;;;12.98;61.86
44839;BME280;30576;42.098;24.876;2022-11-15T14:55:21;99928.66;;;12.77;62.80
44839;BME280;30576;42.098;24.876;2022-11-15T14:57:48;99921.03;;;12.62;63.02
44839;BME280;30576;42.098;24.876;2022-11-15T15:00:14;99922.97;;;12.52;63.59
44839;BME280;30576;42.098;24.876;2022-11-15T15:02:40;99922.06;;;12.54;63.30
44839;BME280;30576;42.098;24.876;2022-11-15T15:07:43;99927.00;;;12.25;64.79
44839;BME280;30576;42.098;24.876;2022-11-15T15:10:09;99921.81;;;12.20;64.47
44839;BME280;30576;42.098;24.876;2022-11-15T15:12:34;99925.66;;;12.02;65.42
44839;BME280;30576;42.098;24.876;2022-11-15T15:15:00;99917.50;;;12.16;65.05
44839;BME280;30576;42.098;24.876;2022-11-15T15:17:25;99926.34;;;12.13;65.15
44839;BME280;30576;42.098;24.876;2022-11-15T15:19:50;99932.44;;;12.17;65.08
44839;BME280;30576;42.098;24.876;2022-11-15T15:22:17;99928.28;;;12.04;65.93
44839;BME280;30576;42.098;24.876;2022-11-15T15:24:43;99931.88;;;11.99;66.29
44839;BME280;30576;42.098;24.876;2022-11-15T15:27:08;99932.00;;;11.89;66.12
44839;BME280;30576;42.098;24.876;2022-11-15T15:29:34;99926.75;;;11.87;66.74
44839;BME280;30576;42.098;24.876;2022-11-15T15:31:59;99926.91;;;11.78;66.53
44839;BME280;30576;42.098;24.876;2022-11-15T15:34:24;99927.06;;;11.69;66.94
44839;BME280;30576;42.098;24.876;2022-11-15T15:37:05;99927.13;;;11.64;67.14
44839;BME280;30576;42.098;24.876;2022-11-15T15:39:31;99927.91;;;11.69;66.94
44839;BME280;30576;42.098;24.876;2022-11-15T15:41:56;99930.66;;;11.61;66.52
44839;BME280;30576;42.098;24.876;2022-11-15T15:44:21;99928.03;;;11.61;67.10
44839;BME280;30576;42.098;24.876;2022-11-15T15:46:47;99930.03;;;11.47;67.17
44839;BME280;30576;42.098;24.876;2022-11-15T15:49:12;99934.38;;;11.51;67.33
44839;BME280;30576;42.098;24.876;2022-11-15T15:51:37;99933.63;;;11.40;67.42
44839;BME280;30576;42.098;24.876;2022-11-15T15:54:03;99926.75;;;11.31;67.67
44839;BME280;30576;42.098;24.876;2022-11-15T15:56:28;99930.38;;;11.22;68.02
44839;BME280;30576;42.098;24.876;2022-11-15T15:58:53;99929.41;;;11.29;67.62
44839;BME280;30576;42.098;24.876;2022-11-15T16:01:20;99930.41;;;11.21;67.99
44839;BME280;30576;42.098;24.876;2022-11-15T16:03:46;99928.63;;;11.21;67.74